createdAt,value
2023-02-16T00:00:54.503Z,23.93
2023-02-16T00:03:24.888Z,24.87
2023-02-16T00:05:54.453Z,23.43
2023-02-16T00:08:23.988Z,20.57
2023-02-16T00:11:11.877Z,23.47
2023-02-16T00:13:52.125Z,22.03
2023-02-16T00:16:24.335Z,23.93
2023-02-16T00:18:54.967Z,24.47
2023-02-16T00:21:24.544Z,23.60
2023-02-16T00:23:54.380Z,21.57
2023-02-16T00:26:26.655Z,23.90
2023-02-16T00:29:01.750Z,22.35
2023-02-16T00:31:32.439Z,22.53
2023-02-16T00:34:05.398Z,20.92
2023-02-16T00:36:34.909Z,19.27
2023-02-16T00:39:04.504Z,22.50
2023-02-16T00:41:53.669Z,19.60
2023-02-16T00:44:26.396Z,20.37
2023-02-16T00:46:56.333Z,21.33
2023-02-16T00:49:26.172Z,22.27
2023-02-16T00:51:56.781Z,22.05
2023-02-16T00:54:26.954Z,21.33
2023-02-16T00:56:56.828Z,21.40
2023-02-16T00:59:26.648Z,20.92
2023-02-16T01:01:57.554Z,19.80
2023-02-16T01:04:27.195Z,21.07
2023-02-16T01:07:15.453Z,21.23
2023-02-16T01:10:03.624Z,19.57
2023-02-16T01:12:33.419Z,18.50
2023-02-16T01:15:02.957Z,21.53
2023-02-16T01:17:32.457Z,20.83
2023-02-16T01:20:02.022Z,21.07
2023-02-16T01:22:33.520Z,20.80
2023-02-16T01:25:03.046Z,19.80
2023-02-16T01:27:33.881Z,19.80
2023-02-16T01:30:03.678Z,22.25
2023-02-16T01:32:33.378Z,18.97
2023-02-16T01:35:02.951Z,22.80
2023-02-16T01:37:32.534Z,20.80
2023-02-16T01:40:02.507Z,21.50
2023-02-16T01:42:37.825Z,24.07
2023-02-16T01:45:16.099Z,22.87
2023-02-16T01:47:52.466Z,21.50
2023-02-16T01:50:27.650Z,21.83
2023-02-16T01:53:03.576Z,20.20
2023-02-16T01:55:36.348Z,23.90
2023-02-16T01:58:44.711Z,21.73
2023-02-16T02:01:26.627Z,22.58
2023-02-16T02:04:14.523Z,23.17
2023-02-16T02:06:44.488Z,21.73
2023-02-16T02:09:23.283Z,22.80
2023-02-16T02:12:16.674Z,23.60
2023-02-16T02:14:48.306Z,23.23
2023-02-16T02:17:21.027Z,23.73
2023-02-16T02:20:17.800Z,22.60
2023-02-16T02:23:32.092Z,22.67
2023-02-16T02:26:13.658Z,22.20
2023-02-16T02:29:16.299Z,22.90
2023-02-16T02:32:05.521Z,23.37
2023-02-16T02:34:56.880Z,20.45
2023-02-16T02:37:47.238Z,22.87
2023-02-16T02:43:07.668Z,24.32
2023-02-16T02:45:46.074Z,20.43
2023-02-16T02:48:16.136Z,25.00
2023-02-16T02:51:18.710Z,23.80
2023-02-16T02:53:57.571Z,22.23
2023-02-16T02:56:45.074Z,22.93
2023-02-16T02:59:32.685Z,24.72
2023-02-16T03:02:03.586Z,23.53
2023-02-16T03:04:34.773Z,24.77
2023-02-16T03:07:05.835Z,24.37
2023-02-16T03:09:35.785Z,25.60
2023-02-16T03:12:27.244Z,23.85
2023-02-16T03:15:00.517Z,25.07
2023-02-16T03:17:56.564Z,23.90
2023-02-16T03:20:44.506Z,23.77
2023-02-16T03:23:31.973Z,24.25
2023-02-16T03:26:19.353Z,22.23
2023-02-16T03:29:08.211Z,23.77
2023-02-16T03:31:40.691Z,25.13
2023-02-16T03:34:10.872Z,23.97
2023-02-16T03:36:43.887Z,24.30
2023-02-16T03:39:14.424Z,25.13
2023-02-16T03:41:52.366Z,24.50
2023-02-16T03:44:23.031Z,24.17
2023-02-16T03:46:53.237Z,21.12
2023-02-16T03:49:22.712Z,22.70
2023-02-16T03:51:52.244Z,20.77
2023-02-16T03:54:22.102Z,23.20
2023-02-16T03:56:51.829Z,22.23
2023-02-16T03:59:21.498Z,24.13
2023-02-16T04:01:51.248Z,24.37
2023-02-16T04:04:21.081Z,21.83
2023-02-16T04:06:50.659Z,21.90
2023-02-16T04:09:20.626Z,25.97
2023-02-16T04:12:08.302Z,23.20
2023-02-16T04:14:37.919Z,22.90
2023-02-16T04:17:07.647Z,23.10
2023-02-16T04:19:37.161Z,24.40
2023-02-16T04:22:07.220Z,26.13
2023-02-16T04:24:36.712Z,23.50
2023-02-16T04:27:06.807Z,21.87
2023-02-16T04:29:36.305Z,26.00
2023-02-16T04:32:07.157Z,26.48
2023-02-16T04:34:36.680Z,23.07
2023-02-16T04:37:06.954Z,23.27
2023-02-16T04:39:36.513Z,24.57
2023-02-16T04:42:06.984Z,24.77
2023-02-16T04:44:36.469Z,25.43
2023-02-16T04:47:06.706Z,23.77
2023-02-16T04:49:36.217Z,23.43
2023-02-16T04:52:06.960Z,25.20
2023-02-16T04:54:36.529Z,26.13
2023-02-16T04:57:07.291Z,26.48
2023-02-16T04:59:36.848Z,26.50
2023-02-16T05:02:07.362Z,24.90
2023-02-16T05:04:37.087Z,24.60
2023-02-16T05:07:07.080Z,26.37
2023-02-16T05:09:36.580Z,24.07
2023-02-16T05:12:09.640Z,26.67
2023-02-16T05:14:48.256Z,24.23
2023-02-16T05:17:27.126Z,25.37
2023-02-16T05:19:59.624Z,24.47
2023-02-16T05:22:31.374Z,22.83
2023-02-16T05:25:04.299Z,23.10
2023-02-16T05:27:34.453Z,24.53
2023-02-16T05:30:04.566Z,24.20
2023-02-16T05:32:34.340Z,23.53
2023-02-16T05:35:03.826Z,22.67
2023-02-16T05:37:33.375Z,22.47
2023-02-16T05:40:02.875Z,23.50
2023-02-16T05:42:32.466Z,24.47
2023-02-16T05:45:02.432Z,23.63
2023-02-16T05:47:32.125Z,24.73
2023-02-16T05:50:01.719Z,24.77
2023-02-16T05:52:31.217Z,24.67
2023-02-16T05:55:00.777Z,23.63
2023-02-16T05:57:30.289Z,24.33
2023-02-16T05:59:59.809Z,22.93
2023-02-16T06:02:29.446Z,24.63
2023-02-16T06:04:58.997Z,26.00
2023-02-16T06:07:28.491Z,25.90
2023-02-16T06:09:58.028Z,24.73
2023-02-16T06:12:27.510Z,25.53
2023-02-16T06:14:57.129Z,25.03
2023-02-16T06:17:26.774Z,23.33
2023-02-16T06:19:56.382Z,24.07
2023-02-16T06:22:26.187Z,25.40
2023-02-16T06:24:55.706Z,24.77
2023-02-16T06:27:25.669Z,25.57
2023-02-16T06:29:55.537Z,25.70
2023-02-16T06:32:25.350Z,27.33
2023-02-16T06:34:54.943Z,21.97
2023-02-16T06:37:25.466Z,23.20
2023-02-16T06:39:55.430Z,24.57
2023-02-16T06:42:24.929Z,23.97
2023-02-16T06:44:54.457Z,24.03
2023-02-16T06:47:24.250Z,27.62
2023-02-16T06:49:53.973Z,28.17
2023-02-16T06:52:24.014Z,23.47
2023-02-16T06:54:53.701Z,25.80
2023-02-16T06:57:23.412Z,25.23
2023-02-16T06:59:53.001Z,23.17
2023-02-16T07:02:22.873Z,26.12
2023-02-16T07:04:53.168Z,26.10
2023-02-16T07:07:22.745Z,23.45
2023-02-16T07:09:52.725Z,24.63
2023-02-16T07:12:22.487Z,23.87
2023-02-16T07:14:52.030Z,24.60
2023-02-16T07:17:21.522Z,24.77
2023-02-16T07:19:52.999Z,24.60
2023-02-16T07:22:22.823Z,25.88
2023-02-16T07:24:52.519Z,25.97
2023-02-16T07:27:22.339Z,26.75
2023-02-16T07:29:52.088Z,23.60
2023-02-16T07:32:21.703Z,26.63
2023-02-16T07:34:51.552Z,28.00
2023-02-16T07:37:21.094Z,26.03
2023-02-16T07:39:50.875Z,25.70
2023-02-16T07:42:21.813Z,30.23
2023-02-16T07:44:53.330Z,28.67
2023-02-16T07:47:22.896Z,27.70
2023-02-16T07:49:52.752Z,26.70
2023-02-16T07:52:22.585Z,26.30
2023-02-16T07:54:52.388Z,27.77
2023-02-16T07:57:22.291Z,27.93
2023-02-16T07:59:55.970Z,24.33
2023-02-16T08:02:27.586Z,26.95
2023-02-16T08:04:58.091Z,25.53
2023-02-16T08:07:28.745Z,25.87
2023-02-16T08:09:59.052Z,19.33
2023-02-16T08:12:28.639Z,16.50
2023-02-16T08:14:58.559Z,17.73
2023-02-16T08:17:28.514Z,15.53
2023-02-16T08:19:58.385Z,15.37
2023-02-16T08:22:29.094Z,13.47
2023-02-16T08:25:02.556Z,14.43
2023-02-16T08:27:32.396Z,12.80
2023-02-16T08:30:02.322Z,14.07
2023-02-16T08:32:32.251Z,12.83
2023-02-16T08:35:02.393Z,12.33
2023-02-16T08:37:32.190Z,12.73
2023-02-16T08:40:02.891Z,12.07
2023-02-16T08:42:32.847Z,13.10
2023-02-16T08:45:02.594Z,11.33
2023-02-16T08:47:34.294Z,11.00
2023-02-16T08:50:04.264Z,11.40
2023-02-16T08:52:34.478Z,12.37
2023-02-16T08:55:04.641Z,12.73
2023-02-16T08:57:37.449Z,11.00
2023-02-16T09:00:26.121Z,10.73
2023-02-16T09:02:57.436Z,11.13
2023-02-16T09:05:29.529Z,11.22
2023-02-16T09:07:59.614Z,10.73
2023-02-16T09:10:30.208Z,11.20
2023-02-16T09:13:00.182Z,11.23
2023-02-16T09:15:30.160Z,9.63
2023-02-16T09:18:00.246Z,9.60
2023-02-16T09:20:30.144Z,10.33
2023-02-16T09:22:59.931Z,10.03
2023-02-16T09:25:30.136Z,10.65
2023-02-16T09:27:59.910Z,9.07
2023-02-16T09:30:29.966Z,9.97
2023-02-16T09:33:03.216Z,9.37
2023-02-16T09:35:33.507Z,9.43
2023-02-16T09:38:03.303Z,10.53
2023-02-16T09:40:33.140Z,9.77
2023-02-16T09:43:07.182Z,10.60
2023-02-16T09:45:46.204Z,9.33
2023-02-16T09:48:30.694Z,8.50
2023-02-16T09:51:03.011Z,9.77
2023-02-16T09:53:39.472Z,9.85
2023-02-16T09:56:22.569Z,9.43
2023-02-16T09:58:58.437Z,8.83
2023-02-16T10:01:40.358Z,9.00
2023-02-16T10:04:23.699Z,9.77
2023-02-16T10:07:17.578Z,9.18
2023-02-16T10:09:51.199Z,10.07
2023-02-16T10:12:24.022Z,8.83
2023-02-16T10:14:57.106Z,9.03
2023-02-16T10:17:35.871Z,9.07
2023-02-16T10:20:21.474Z,9.08
2023-02-16T10:22:54.297Z,10.53
2023-02-16T10:25:46.996Z,10.48
2023-02-16T10:28:21.866Z,9.60
2023-02-16T10:31:03.915Z,9.90
2023-02-16T10:33:43.243Z,9.80
2023-02-16T10:36:20.168Z,9.60
2023-02-16T10:38:55.530Z,10.27
2023-02-16T10:41:34.029Z,9.07
2023-02-16T10:44:28.213Z,9.97
2023-02-16T10:47:07.543Z,9.67
2023-02-16T10:49:37.845Z,9.83
2023-02-16T10:52:09.979Z,8.53
2023-02-16T10:54:40.182Z,8.97
2023-02-16T10:57:15.907Z,8.37
2023-02-16T10:59:47.323Z,10.67
2023-02-16T11:02:32.065Z,10.67
2023-02-16T11:05:03.918Z,9.30
2023-02-16T11:07:35.323Z,9.57
2023-02-16T11:10:09.243Z,10.45
2023-02-16T11:12:43.668Z,9.93
2023-02-16T11:15:19.723Z,10.40
2023-02-16T11:18:03.447Z,11.12
2023-02-16T11:20:36.761Z,9.98
2023-02-16T11:23:28.343Z,8.40
2023-02-16T11:26:02.338Z,9.50
2023-02-16T11:28:38.239Z,9.93
2023-02-16T11:31:20.042Z,10.23
2023-02-16T11:34:21.757Z,10.10
2023-02-16T11:36:51.744Z,10.32
2023-02-16T11:39:27.090Z,10.37
2023-02-16T11:41:59.678Z,9.63
2023-02-16T11:44:34.595Z,11.05
2023-02-16T11:47:10.548Z,10.83
2023-02-16T11:49:43.018Z,10.43
2023-02-16T11:52:27.669Z,9.90
2023-02-16T11:55:00.784Z,10.20
2023-02-16T11:57:34.470Z,9.17
2023-02-16T12:00:07.460Z,9.80
2023-02-16T12:03:09.324Z,11.20
2023-02-16T12:06:04.855Z,9.93
2023-02-16T12:08:56.025Z,10.03
2023-02-16T12:11:40.824Z,9.13
2023-02-16T12:14:29.145Z,9.83
2023-02-16T12:17:21.711Z,9.17
2023-02-16T12:19:54.523Z,8.13
2023-02-16T12:22:48.472Z,8.50
2023-02-16T12:25:42.329Z,9.13
2023-02-16T12:28:20.934Z,10.53
2023-02-16T12:31:16.807Z,9.43
2023-02-16T12:33:49.700Z,10.20
2023-02-16T12:36:37.357Z,10.03
2023-02-16T12:39:21.758Z,9.47
2023-02-16T12:42:10.879Z,9.33
2023-02-16T12:44:46.424Z,9.73
2023-02-16T12:47:19.567Z,10.10
2023-02-16T12:49:54.904Z,9.10
2023-02-16T12:52:30.531Z,10.87
2023-02-16T12:55:09.271Z,9.57
2023-02-16T12:57:42.140Z,11.07
2023-02-16T13:00:17.727Z,9.37
2023-02-16T13:02:53.378Z,10.30
2023-02-16T13:05:34.730Z,10.67
2023-02-16T13:08:25.637Z,11.20
2023-02-16T13:11:01.194Z,9.27
2023-02-16T13:13:34.231Z,10.73
2023-02-16T13:16:31.226Z,12.20
2023-02-16T13:19:01.852Z,9.63
2023-02-16T13:21:56.980Z,11.17
2023-02-16T13:24:32.799Z,9.90
2023-02-16T13:27:14.725Z,10.43
2023-02-16T13:30:06.130Z,10.20
2023-02-16T13:32:44.984Z,10.20
2023-02-16T13:35:32.731Z,9.90
2023-02-16T13:38:28.167Z,9.05
2023-02-16T13:41:01.038Z,11.37
2023-02-16T13:43:36.873Z,10.47
2023-02-16T13:46:15.799Z,10.27
2023-02-16T13:48:53.581Z,9.88
2023-02-16T13:51:27.398Z,10.08
2023-02-16T13:54:03.142Z,11.00
2023-02-16T13:56:38.592Z,10.58
2023-02-16T13:59:23.372Z,10.17
2023-02-16T14:01:55.015Z,11.00
2023-02-16T14:04:27.785Z,10.37
2023-02-16T14:07:11.018Z,10.43
2023-02-16T14:09:43.842Z,10.67
2023-02-16T14:12:19.068Z,10.67
2023-02-16T14:14:57.800Z,10.70
2023-02-16T14:17:35.816Z,10.73
2023-02-16T14:20:18.426Z,10.85
2023-02-16T14:22:54.518Z,11.25
2023-02-16T14:25:28.943Z,11.57
2023-02-16T14:28:06.921Z,10.00
2023-02-16T14:30:51.822Z,10.65
2023-02-16T14:33:24.741Z,11.47
2023-02-16T14:36:04.029Z,11.63
2023-02-16T14:38:42.937Z,10.43
2023-02-16T14:41:28.166Z,9.60
2023-02-16T14:44:03.685Z,12.63
2023-02-16T14:47:00.500Z,12.27
2023-02-16T14:49:39.256Z,10.50
2023-02-16T14:52:45.823Z,11.27
2023-02-16T14:55:36.460Z,10.82
2023-02-16T14:58:22.115Z,11.20
2023-02-16T15:01:04.097Z,10.13
2023-02-16T15:03:54.780Z,10.90
2023-02-16T15:06:27.382Z,11.73
2023-02-16T15:09:00.523Z,11.40
2023-02-16T15:11:38.026Z,11.25
2023-02-16T15:14:11.257Z,12.07
2023-02-16T15:16:42.171Z,11.43
2023-02-16T15:19:15.215Z,10.40
2023-02-16T15:21:45.088Z,10.83
2023-02-16T15:24:26.009Z,11.88
2023-02-16T15:26:59.351Z,11.03
2023-02-16T15:29:29.915Z,10.82
2023-02-16T15:32:01.080Z,10.88
2023-02-16T15:34:39.404Z,10.95
2023-02-16T15:37:24.382Z,11.10
2023-02-16T15:40:14.888Z,10.90
2023-02-16T15:42:29.537Z,10.30
2023-02-16T15:44:59.380Z,9.70
2023-02-16T15:47:29.843Z,10.83
2023-02-16T15:50:02.797Z,9.80
2023-02-16T15:52:38.453Z,12.03
2023-02-16T15:55:10.838Z,10.03
2023-02-16T15:57:42.557Z,10.35
2023-02-16T16:00:23.224Z,11.70
2023-02-16T16:02:55.879Z,11.87
2023-02-16T16:05:29.203Z,36.37
2023-02-16T16:08:00.031Z,17.20
2023-02-16T16:10:36.887Z,12.35
2023-02-16T16:13:09.829Z,11.53
2023-02-16T16:15:45.303Z,10.90
2023-02-16T16:18:38.998Z,9.98
2023-02-16T16:21:21.483Z,10.27
2023-02-16T16:23:56.633Z,11.63
2023-02-16T16:26:29.476Z,11.87
2023-02-16T16:28:59.765Z,11.83
2023-02-16T16:31:33.347Z,11.40
2023-02-16T16:34:07.131Z,12.40
2023-02-16T16:36:42.878Z,11.80
2023-02-16T16:39:21.411Z,12.65
2023-02-16T16:42:17.814Z,12.57
2023-02-16T16:45:07.369Z,10.70
2023-02-16T16:47:46.217Z,13.67
2023-02-16T16:50:18.795Z,12.83
2023-02-16T16:52:50.975Z,11.27
2023-02-16T16:55:24.853Z,12.80
2023-02-16T16:57:57.599Z,13.30
2023-02-16T17:00:30.971Z,12.57
2023-02-16T17:03:01.200Z,11.73
2023-02-16T17:05:31.499Z,11.78
2023-02-16T17:08:01.562Z,10.40
2023-02-16T17:10:31.448Z,13.03
2023-02-16T17:13:03.053Z,11.88
2023-02-16T17:15:44.837Z,12.33
2023-02-16T17:18:17.255Z,11.30
2023-02-16T17:20:47.684Z,11.60
2023-02-16T17:23:18.893Z,12.80
2023-02-16T17:25:49.358Z,12.47
2023-02-16T17:28:20.001Z,13.10
2023-02-16T17:30:49.862Z,12.07
2023-02-16T17:33:20.129Z,12.33
2023-02-16T17:35:50.325Z,13.88
2023-02-16T17:38:22.536Z,13.53
2023-02-16T17:40:54.964Z,14.60
2023-02-16T17:43:26.805Z,14.65
2023-02-16T17:45:59.967Z,13.67
2023-02-16T17:48:31.136Z,13.20
2023-02-16T17:53:29.965Z,14.25
2023-02-16T17:55:59.894Z,15.90
2023-02-16T17:58:30.032Z,14.93
2023-02-16T18:00:59.930Z,15.67
2023-02-16T18:03:29.874Z,16.67
2023-02-16T18:05:59.728Z,15.47
2023-02-16T18:08:29.627Z,16.63
2023-02-16T18:11:01.328Z,14.87
2023-02-16T18:13:32.275Z,15.80
2023-02-16T18:18:40.058Z,15.48
2023-02-16T18:21:09.866Z,16.60
2023-02-16T18:23:40.115Z,17.10
2023-02-16T18:26:10.064Z,17.63
2023-02-16T18:28:40.341Z,16.23
2023-02-16T18:31:10.364Z,19.77
2023-02-16T18:33:40.203Z,17.80
2023-02-16T18:36:10.621Z,16.13
2023-02-16T18:38:40.579Z,14.87
2023-02-16T18:41:10.681Z,18.80
2023-02-16T18:43:40.450Z,16.73
2023-02-16T18:46:11.144Z,15.93
2023-02-16T18:48:41.052Z,15.23
2023-02-16T18:51:11.904Z,16.13
2023-02-16T18:53:41.700Z,15.78
2023-02-16T18:56:13.213Z,15.72
2023-02-16T18:58:43.512Z,16.48
2023-02-16T19:01:15.596Z,16.33
2023-02-16T19:03:45.952Z,16.62
2023-02-16T19:06:15.469Z,15.23
2023-02-16T19:08:46.425Z,16.70
2023-02-16T19:11:16.376Z,15.70
2023-02-16T19:13:47.160Z,16.25
2023-02-16T19:16:18.001Z,15.30
2023-02-16T19:18:47.811Z,16.23
2023-02-16T19:21:17.298Z,16.80
2023-02-16T19:23:47.299Z,14.87
2023-02-16T19:26:18.862Z,15.03
2023-02-16T19:28:48.919Z,16.27
2023-02-16T19:31:21.284Z,16.23
2023-02-16T19:33:52.333Z,15.77
2023-02-16T19:36:22.637Z,16.20
2023-02-16T19:38:53.315Z,16.07
2023-02-16T19:41:26.184Z,15.68
2023-02-16T19:43:56.387Z,16.07
2023-02-16T19:46:27.146Z,17.90
2023-02-16T19:48:58.563Z,17.82
2023-02-16T19:51:28.941Z,21.63
2023-02-16T19:54:00.617Z,21.48
2023-02-16T19:56:30.494Z,20.88
2023-02-16T19:59:01.451Z,19.90
2023-02-16T20:04:01.011Z,18.30
2023-02-16T20:06:39.331Z,17.77
2023-02-16T20:09:12.196Z,15.73
2023-02-16T20:11:42.477Z,17.73
2023-02-16T20:14:13.270Z,16.67
2023-02-16T20:16:43.261Z,20.77
2023-02-16T20:19:13.224Z,21.63
2023-02-16T20:21:44.205Z,23.13
2023-02-16T20:24:14.884Z,20.87
2023-02-16T20:26:48.966Z,21.50
2023-02-16T20:29:18.519Z,21.77
2023-02-16T20:31:54.174Z,21.70
2023-02-16T20:34:25.783Z,19.13
2023-02-16T20:36:55.835Z,16.83
2023-02-16T20:39:25.749Z,14.10
2023-02-16T20:41:55.866Z,16.03
2023-02-16T20:44:26.583Z,13.57
2023-02-16T20:46:56.440Z,14.40
2023-02-16T20:49:26.289Z,13.53
2023-02-16T20:51:56.476Z,15.65
2023-02-16T20:54:26.318Z,15.10
2023-02-16T20:56:56.457Z,14.07
2023-02-16T20:59:26.434Z,13.13
2023-02-16T21:01:56.778Z,15.55
2023-02-16T21:04:26.579Z,16.63
2023-02-16T21:06:56.705Z,19.15
2023-02-16T21:09:26.498Z,17.37
2023-02-16T21:11:56.331Z,17.03
2023-02-16T21:14:26.178Z,18.13
2023-02-16T21:16:55.886Z,18.00
2023-02-16T21:19:25.718Z,15.80
2023-02-16T21:21:55.521Z,17.23
2023-02-16T21:24:25.042Z,15.13
2023-02-16T21:26:54.906Z,17.17
2023-02-16T21:29:24.506Z,16.43
2023-02-16T21:31:54.498Z,14.90
2023-02-16T21:34:24.267Z,14.70
2023-02-16T21:36:54.059Z,13.97
2023-02-16T21:39:26.176Z,14.23
2023-02-16T21:41:55.741Z,14.38
2023-02-16T21:44:25.565Z,14.18
2023-02-16T21:46:55.401Z,13.87
2023-02-16T21:49:25.164Z,16.47
2023-02-16T21:51:55.012Z,12.83
2023-02-16T21:54:26.304Z,18.03
2023-02-16T21:56:56.111Z,19.85
2023-02-16T21:59:25.926Z,17.90
2023-02-16T22:01:55.723Z,20.00
2023-02-16T22:04:25.629Z,17.37
2023-02-16T22:06:56.050Z,16.97
2023-02-16T22:09:26.221Z,16.23
2023-02-16T22:11:56.007Z,19.33
2023-02-16T22:14:25.861Z,18.80
2023-02-16T22:16:55.636Z,17.13
2023-02-16T22:19:25.468Z,19.40
2023-02-16T22:21:55.327Z,16.90
2023-02-16T22:24:25.386Z,18.83
2023-02-16T22:26:55.184Z,17.87
2023-02-16T22:29:24.711Z,18.27
2023-02-16T22:31:54.599Z,18.03
2023-02-16T22:34:24.112Z,17.73
2023-02-16T22:36:54.209Z,16.70
2023-02-16T22:39:24.030Z,14.70
2023-02-16T22:41:53.811Z,15.60
2023-02-16T22:44:23.357Z,15.40
2023-02-16T22:46:54.490Z,16.83
2023-02-16T22:49:24.315Z,17.52
2023-02-16T22:51:54.374Z,17.83
2023-02-16T22:54:24.736Z,16.30
2023-02-16T22:56:54.228Z,15.60
2023-02-16T22:59:23.769Z,14.60
2023-02-16T23:01:53.554Z,13.00
2023-02-16T23:04:23.131Z,13.30
2023-02-16T23:06:52.979Z,12.73
2023-02-16T23:09:23.729Z,11.63
2023-02-16T23:11:53.683Z,12.35
2023-02-16T23:14:23.829Z,11.18
2023-02-16T23:16:54.813Z,13.13
2023-02-16T23:19:27.113Z,13.88
2023-02-16T23:21:57.147Z,12.57
2023-02-16T23:24:27.418Z,12.28
2023-02-16T23:26:57.703Z,14.23
2023-02-16T23:29:27.756Z,13.70
2023-02-16T23:31:57.936Z,12.10
2023-02-16T23:34:27.723Z,12.63
2023-02-16T23:36:57.554Z,13.73
2023-02-16T23:39:27.338Z,12.53
2023-02-16T23:41:57.482Z,12.15
2023-02-16T23:44:27.270Z,11.50
2023-02-16T23:46:57.167Z,12.20
2023-02-16T23:49:30.943Z,11.23
2023-02-16T23:52:01.073Z,11.80
2023-02-16T23:54:30.950Z,10.53
2023-02-16T23:57:00.791Z,11.37
2023-02-16T23:59:30.887Z,12.03
